Terminal Aerodrome Forecast
Issued by NWS Cheyenne, WY

Home | Current Version | Previous Version | Text Only | Print | Product List | Glossary On
Versions: 1 2 3 4 5 6 7 8 9 10 11 12 13 14 15 16 17 18 19 20 21 22 23 24 25 26 27 28 29 30 31 32 33 34 35 36 37 38 39 40 41 42
000
FTUS45 KCYS 280500
TAFCYS
TAF
KCYS 280526Z 2806/2906 13006KT P6SM FEW050
     FM281100 16007KT 2SM BR BKN005
     FM281800 15008KT P6SM SCT040
     FM282100 15010G18KT P6SM VCTS SCT040 BKN120CB
      TEMPO 2821/2824 -TSRA BKN050CB
     FM290200 17008KT 5SM -TSRA BKN050CB=

USA.gov is the U.S. government's official web portal to all federal, state and local government web resources and services.